createdAt,value
2018-07-15T00:01:15.340Z,15.30
2018-07-15T00:03:43.798Z,19.70
2018-07-15T00:06:12.263Z,15.57
2018-07-15T00:08:40.676Z,17.03
2018-07-15T00:11:09.131Z,14.35
2018-07-15T00:13:37.571Z,14.53
2018-07-15T00:16:06.029Z,15.67
2018-07-15T00:18:34.642Z,14.50
2018-07-15T00:21:03.480Z,18.17
2018-07-15T00:23:31.923Z,18.27
2018-07-15T00:26:00.355Z,16.73
2018-07-15T00:28:28.780Z,18.75
2018-07-15T00:30:57.225Z,18.93
2018-07-15T00:33:25.902Z,20.55
2018-07-15T00:35:54.366Z,17.27
2018-07-15T00:38:22.813Z,17.43
2018-07-15T00:40:51.265Z,19.70
2018-07-15T00:43:19.723Z,19.48
2018-07-15T00:45:48.424Z,21.73
2018-07-15T00:48:16.907Z,22.17
2018-07-15T00:50:45.361Z,22.30
2018-07-15T00:53:14.004Z,21.30
2018-07-15T00:55:42.451Z,19.57
2018-07-15T00:58:10.923Z,22.07
2018-07-15T01:00:44.572Z,22.50
2018-07-15T01:03:13.074Z,21.97
2018-07-15T01:05:41.495Z,20.47
2018-07-15T01:08:09.957Z,19.57
2018-07-15T01:10:38.362Z,17.33
2018-07-15T01:13:07.044Z,18.87
2018-07-15T01:15:36.013Z,18.20
2018-07-15T01:18:04.695Z,16.90
2018-07-15T01:20:33.182Z,17.43
2018-07-15T01:23:01.736Z,18.50
2018-07-15T01:25:30.484Z,17.90
2018-07-15T01:27:59.463Z,18.00
2018-07-15T01:30:27.918Z,17.10
2018-07-15T01:32:56.355Z,17.87
2018-07-15T01:35:24.824Z,18.02
2018-07-15T01:37:53.323Z,18.40
2018-07-15T01:40:22.062Z,20.57
2018-07-15T01:42:50.498Z,19.97
2018-07-15T01:45:18.943Z,17.32
2018-07-15T01:47:47.420Z,20.93
2018-07-15T01:50:16.165Z,20.20
2018-07-15T01:52:44.584Z,20.23
2018-07-15T01:55:13.049Z,18.80
2018-07-15T01:57:41.459Z,21.63
2018-07-15T02:00:10.153Z,21.10
2018-07-15T02:02:38.627Z,20.53
2018-07-15T02:05:07.644Z,21.60
2018-07-15T02:07:37.182Z,22.40
2018-07-15T02:10:06.090Z,20.50
2018-07-15T02:12:34.486Z,23.13
2018-07-15T02:15:02.924Z,23.20
2018-07-15T02:17:31.351Z,22.17
2018-07-15T02:19:59.808Z,24.20
2018-07-15T02:22:28.255Z,24.12
2018-07-15T02:24:56.724Z,26.73
2018-07-15T02:27:25.224Z,27.05
2018-07-15T02:29:53.665Z,24.70
2018-07-15T02:32:22.458Z,22.55
2018-07-15T02:34:50.917Z,20.07
2018-07-15T02:37:19.552Z,21.73
2018-07-15T02:39:48.003Z,21.03
2018-07-15T02:42:17.315Z,21.73
2018-07-15T02:44:46.071Z,22.20
2018-07-15T02:47:14.524Z,22.40
2018-07-15T02:49:43.020Z,20.82
2018-07-15T02:52:11.478Z,19.57
2018-07-15T02:54:40.304Z,20.67
2018-07-15T02:57:08.748Z,22.57
2018-07-15T02:59:37.208Z,22.48
2018-07-15T03:02:05.647Z,21.83
2018-07-15T03:04:34.058Z,23.05
2018-07-15T03:07:02.520Z,22.33
2018-07-15T03:09:30.981Z,21.03
2018-07-15T03:11:59.391Z,23.20
2018-07-15T03:14:27.841Z,21.30
2018-07-15T03:16:56.294Z,21.93
2018-07-15T03:19:24.791Z,19.60
2018-07-15T03:21:53.266Z,20.30
2018-07-15T03:24:21.871Z,19.40
2018-07-15T03:26:50.704Z,20.40
2018-07-15T03:29:19.175Z,19.80
2018-07-15T03:31:47.598Z,20.73
2018-07-15T03:34:16.032Z,20.27
2018-07-15T03:36:44.495Z,21.03
2018-07-15T03:39:12.968Z,20.00
2018-07-15T03:41:41.410Z,19.57
2018-07-15T03:44:09.868Z,21.97
2018-07-15T03:46:38.289Z,20.85
2018-07-15T03:49:37.679Z,20.50
2018-07-15T03:52:06.330Z,21.30
2018-07-15T03:54:34.768Z,21.00
2018-07-15T03:57:03.267Z,19.50
2018-07-15T03:59:31.723Z,20.87
2018-07-15T04:02:00.210Z,20.03
2018-07-15T04:04:28.627Z,21.30
2018-07-15T04:06:57.044Z,20.27
2018-07-15T04:09:25.531Z,21.30
2018-07-15T04:11:54.007Z,19.30
2018-07-15T04:14:22.495Z,18.23
2018-07-15T04:16:50.896Z,19.40
2018-07-15T04:19:19.671Z,16.47
2018-07-15T04:21:48.091Z,13.03
2018-07-15T04:24:17.280Z,12.00
2018-07-15T04:26:45.781Z,13.70
2018-07-15T04:29:14.239Z,14.67
2018-07-15T04:31:42.904Z,12.10
2018-07-15T04:34:11.539Z,13.93
2018-07-15T04:36:40.014Z,10.77
2018-07-15T04:39:09.691Z,11.87
2018-07-15T04:41:38.380Z,12.30
2018-07-15T04:44:07.496Z,13.18
2018-07-15T04:46:35.983Z,14.33
2018-07-15T04:49:04.767Z,14.03
2018-07-15T04:51:33.282Z,14.20
2018-07-15T04:54:01.705Z,15.80
2018-07-15T04:56:30.129Z,16.00
2018-07-15T04:58:58.683Z,17.87
2018-07-15T05:01:27.130Z,19.90
2018-07-15T05:03:55.534Z,18.40
2018-07-15T05:06:24.012Z,20.07
2018-07-15T05:08:52.448Z,20.23
2018-07-15T05:11:20.972Z,19.60
2018-07-15T05:13:49.459Z,15.80
2018-07-15T05:16:18.074Z,18.60
2018-07-15T05:18:46.507Z,16.60
2018-07-15T05:21:14.936Z,17.10
2018-07-15T05:23:43.383Z,17.27
2018-07-15T05:26:11.866Z,17.83
2018-07-15T05:28:40.333Z,13.73
2018-07-15T05:31:08.801Z,17.33
2018-07-15T05:33:38.226Z,13.83
2018-07-15T05:36:06.684Z,16.93
2018-07-15T05:38:35.131Z,16.93
2018-07-15T05:41:03.641Z,17.93
2018-07-15T05:43:32.095Z,17.03
2018-07-15T05:46:00.696Z,16.10
2018-07-15T05:48:29.146Z,20.03
2018-07-15T05:50:57.738Z,18.10
2018-07-15T05:53:26.205Z,22.47
2018-07-15T05:55:54.661Z,22.55
2018-07-15T05:58:23.113Z,23.10
2018-07-15T06:00:51.529Z,19.70
2018-07-15T06:03:19.984Z,18.20
2018-07-15T06:05:48.463Z,18.63
2018-07-15T06:08:16.954Z,22.00
2018-07-15T06:10:45.479Z,17.97
2018-07-15T06:13:13.895Z,20.90
2018-07-15T06:15:43.434Z,19.10
2018-07-15T06:18:11.858Z,17.37
2018-07-15T06:20:40.281Z,28.27
2018-07-15T06:23:08.729Z,19.37
2018-07-15T06:25:37.184Z,21.57
2018-07-15T06:28:05.658Z,26.23
2018-07-15T06:30:34.118Z,25.60
2018-07-15T06:33:02.711Z,26.50
2018-07-15T06:35:31.159Z,28.30
2018-07-15T06:37:59.591Z,26.07
2018-07-15T06:40:28.094Z,26.70
2018-07-15T06:42:56.530Z,24.95
2018-07-15T06:45:24.977Z,22.70
2018-07-15T06:47:53.407Z,23.33
2018-07-15T06:50:21.847Z,23.43
2018-07-15T06:52:50.299Z,21.62
2018-07-15T06:55:18.715Z,24.33
2018-07-15T06:57:47.184Z,25.60
2018-07-15T07:00:15.656Z,23.10
2018-07-15T07:02:44.125Z,21.37
2018-07-15T07:05:12.616Z,24.50
2018-07-15T07:07:41.335Z,27.33
2018-07-15T07:10:09.746Z,26.67
2018-07-15T07:12:38.184Z,25.80
2018-07-15T07:15:07.276Z,25.30
2018-07-15T07:17:35.780Z,26.37
2018-07-15T07:20:04.264Z,26.80
2018-07-15T07:22:32.795Z,27.23
2018-07-15T07:25:01.242Z,25.27
2018-07-15T07:27:29.738Z,26.60
2018-07-15T07:29:58.460Z,24.67
2018-07-15T07:32:26.959Z,26.10
2018-07-15T07:34:55.447Z,24.50
2018-07-15T07:37:24.275Z,26.37
2018-07-15T07:39:52.746Z,33.43
2018-07-15T07:42:21.209Z,26.47
2018-07-15T07:44:49.671Z,25.87
2018-07-15T07:47:18.117Z,25.63
2018-07-15T07:49:46.591Z,30.40
2018-07-15T07:52:15.360Z,26.67
2018-07-15T07:54:43.752Z,22.57
2018-07-15T07:57:12.196Z,23.23
2018-07-15T07:59:40.627Z,21.67
2018-07-15T08:02:09.065Z,20.70
2018-07-15T08:04:37.547Z,20.40
2018-07-15T08:07:06.005Z,17.20
2018-07-15T08:09:34.500Z,17.03
2018-07-15T08:12:03.344Z,17.90
2018-07-15T08:14:31.816Z,18.10
2018-07-15T08:17:00.441Z,18.70
2018-07-15T08:19:29.122Z,16.90
2018-07-15T08:21:57.574Z,15.30
2018-07-15T08:24:26.418Z,14.20
2018-07-15T08:26:55.141Z,15.30
2018-07-15T08:29:23.993Z,12.70
2018-07-15T08:31:52.464Z,12.73
2018-07-15T08:34:20.894Z,12.97
2018-07-15T08:36:49.353Z,12.33
2018-07-15T08:39:18.107Z,13.40
2018-07-15T08:41:47.122Z,11.40
2018-07-15T08:44:15.545Z,11.70
2018-07-15T08:46:44.187Z,14.63
2018-07-15T08:49:12.666Z,10.23
2018-07-15T08:51:41.483Z,10.37
2018-07-15T08:54:09.988Z,11.50
2018-07-15T08:56:38.392Z,8.97
2018-07-15T08:59:06.932Z,7.63
2018-07-15T09:01:35.413Z,8.03
2018-07-15T09:04:04.228Z,6.80
2018-07-15T09:06:32.748Z,7.00
2018-07-15T09:09:01.168Z,9.70
2018-07-15T09:11:29.624Z,6.60
2018-07-15T09:16:32.995Z,8.13
2018-07-15T09:19:01.551Z,8.03
2018-07-15T09:21:29.967Z,5.67
2018-07-15T09:23:58.538Z,5.77
2018-07-15T09:26:27.354Z,5.63
2018-07-15T09:28:55.867Z,5.33
2018-07-15T09:31:24.328Z,6.47
2018-07-15T09:33:53.158Z,12.00
2018-07-15T09:36:21.648Z,6.57
2018-07-15T09:38:50.277Z,7.20
2018-07-15T09:41:18.703Z,6.40
2018-07-15T09:43:47.384Z,5.90
2018-07-15T09:46:16.083Z,5.77
2018-07-15T09:48:44.513Z,5.70
2018-07-15T09:51:13.173Z,5.60
2018-07-15T09:53:41.664Z,5.67
2018-07-15T09:56:10.616Z,5.50
2018-07-15T09:58:39.127Z,5.57
2018-07-15T10:01:07.927Z,6.20
2018-07-15T10:03:36.455Z,6.10
2018-07-15T10:06:05.018Z,5.47
2018-07-15T10:08:33.576Z,5.80
2018-07-15T10:11:02.077Z,5.27
2018-07-15T10:13:30.520Z,6.08
2018-07-15T10:15:58.960Z,6.10
2018-07-15T10:18:27.438Z,5.40
2018-07-15T10:20:55.880Z,5.27
2018-07-15T10:23:24.631Z,5.20
2018-07-15T10:25:53.091Z,5.43
2018-07-15T10:28:21.807Z,6.40
2018-07-15T10:30:50.404Z,5.13
2018-07-15T10:33:19.289Z,4.80
2018-07-15T10:35:47.687Z,5.47
2018-07-15T10:38:16.383Z,5.42
2018-07-15T10:40:45.152Z,5.40
2018-07-15T10:43:13.637Z,4.50
2018-07-15T10:45:42.206Z,4.70
2018-07-15T10:48:10.660Z,5.20
2018-07-15T10:50:39.157Z,5.40
2018-07-15T10:53:07.640Z,5.17
2018-07-15T10:55:36.144Z,8.40
2018-07-15T10:58:04.744Z,5.70
2018-07-15T11:00:33.239Z,5.20
2018-07-15T11:03:01.703Z,5.40
2018-07-15T11:05:30.204Z,5.22
2018-07-15T11:07:58.859Z,5.58
2018-07-15T11:10:27.300Z,5.90
2018-07-15T11:12:55.757Z,5.10
2018-07-15T11:15:24.197Z,5.20
2018-07-15T11:17:52.960Z,5.27
2018-07-15T11:20:21.411Z,5.80
2018-07-15T11:22:50.080Z,5.10
2018-07-15T11:25:18.548Z,5.55
2018-07-15T11:27:47.008Z,5.00
2018-07-15T11:30:15.680Z,6.15
2018-07-15T11:32:44.360Z,5.13
2018-07-15T11:35:12.955Z,5.30
2018-07-15T11:37:41.422Z,5.20
2018-07-15T11:40:10.172Z,4.53
2018-07-15T11:42:38.609Z,4.73
2018-07-15T11:45:07.179Z,4.57
2018-07-15T11:47:35.803Z,4.60
2018-07-15T11:50:04.581Z,4.60
2018-07-15T11:52:33.094Z,5.07
2018-07-15T11:55:01.503Z,8.57
2018-07-15T11:57:29.906Z,4.63
2018-07-15T11:59:58.370Z,4.80
2018-07-15T12:02:26.978Z,4.50
2018-07-15T12:04:55.807Z,4.25
2018-07-15T12:07:24.229Z,5.07
2018-07-15T12:09:52.671Z,6.23
2018-07-15T12:12:21.390Z,4.30
2018-07-15T12:14:49.820Z,3.73
2018-07-15T12:17:18.644Z,3.80
2018-07-15T12:19:47.228Z,3.03
2018-07-15T12:22:15.737Z,3.20
2018-07-15T12:24:44.208Z,3.37
2018-07-15T12:27:12.727Z,3.17
2018-07-15T12:29:41.339Z,2.93
2018-07-15T12:32:09.847Z,3.00
2018-07-15T12:34:38.687Z,3.00
2018-07-15T12:37:07.231Z,2.33
2018-07-15T12:39:35.632Z,2.80
2018-07-15T12:42:04.329Z,3.73
2018-07-15T12:44:33.060Z,3.30
2018-07-15T12:47:01.506Z,3.97
2018-07-15T12:49:30.423Z,7.93
2018-07-15T12:51:59.082Z,4.23
2018-07-15T12:54:27.732Z,6.10
2018-07-15T12:56:56.277Z,4.33
2018-07-15T12:59:24.713Z,3.23
2018-07-15T13:01:53.153Z,3.00
2018-07-15T13:04:21.632Z,2.90
2018-07-15T13:06:50.432Z,3.00
2018-07-15T13:09:19.215Z,3.33
2018-07-15T13:11:47.923Z,4.40
2018-07-15T13:14:16.353Z,3.60
2018-07-15T13:16:44.821Z,3.87
2018-07-15T13:19:13.658Z,2.67
2018-07-15T13:21:42.083Z,3.90
2018-07-15T13:24:10.551Z,2.80
2018-07-15T13:26:38.947Z,2.80
2018-07-15T13:29:08.003Z,2.10
2018-07-15T13:31:36.584Z,2.50
2018-07-15T13:34:05.007Z,3.30
2018-07-15T13:36:33.591Z,2.73
2018-07-15T13:39:02.172Z,2.90
2018-07-15T13:41:30.740Z,4.03
2018-07-15T13:43:59.397Z,5.20
2018-07-15T13:46:27.867Z,5.17
2018-07-15T13:48:56.259Z,4.27
2018-07-15T13:51:24.944Z,5.70
2018-07-15T13:53:53.620Z,5.53
2018-07-15T13:56:22.135Z,4.07
2018-07-15T13:58:50.916Z,4.90
2018-07-15T14:01:19.436Z,5.00
2018-07-15T14:03:47.823Z,5.10
2018-07-15T14:06:16.301Z,5.40
2018-07-15T14:08:44.762Z,4.50
2018-07-15T14:11:13.209Z,4.73
2018-07-15T14:13:41.634Z,5.07
2018-07-15T14:16:10.075Z,4.67
2018-07-15T14:18:38.554Z,4.50
2018-07-15T14:21:07.552Z,4.50
2018-07-15T14:23:36.303Z,4.63
2018-07-15T14:26:04.952Z,4.20
2018-07-15T14:28:33.538Z,4.70
2018-07-15T14:31:02.020Z,4.10
2018-07-15T14:33:30.787Z,3.47
2018-07-15T14:35:59.683Z,3.50
2018-07-15T14:38:28.499Z,3.60
2018-07-15T14:40:57.008Z,3.40
2018-07-15T14:43:25.527Z,3.87
2018-07-15T14:45:55.028Z,3.20
2018-07-15T14:48:23.887Z,3.53
2018-07-15T14:50:52.496Z,3.37
2018-07-15T14:53:20.970Z,3.20
2018-07-15T14:55:49.454Z,3.40
2018-07-15T14:58:17.851Z,3.50
2018-07-15T15:00:46.723Z,3.20
2018-07-15T15:03:15.147Z,2.90
2018-07-15T15:05:43.800Z,3.17
2018-07-15T15:08:12.482Z,3.07
2018-07-15T15:10:40.951Z,3.77
2018-07-15T15:13:09.464Z,3.37
2018-07-15T15:15:37.907Z,2.87
2018-07-15T15:18:06.340Z,3.70
2018-07-15T15:20:34.782Z,4.03
2018-07-15T15:23:03.232Z,3.23
2018-07-15T15:25:31.645Z,3.30
2018-07-15T15:28:00.400Z,3.30
2018-07-15T15:30:28.868Z,3.70
2018-07-15T15:32:57.287Z,3.42
2018-07-15T15:35:25.760Z,3.37
2018-07-15T15:37:54.159Z,4.00
2018-07-15T15:40:22.769Z,9.23
2018-07-15T15:42:52.126Z,4.50
2018-07-15T15:45:20.665Z,4.17
2018-07-15T15:47:49.166Z,3.33
2018-07-15T15:50:17.712Z,2.77
2018-07-15T15:52:46.266Z,3.30
2018-07-15T15:55:14.904Z,3.40
2018-07-15T15:57:43.339Z,5.87
2018-07-15T16:00:12.183Z,7.37
2018-07-15T16:02:40.839Z,3.30
2018-07-15T16:05:10.320Z,5.50
2018-07-15T16:07:38.856Z,3.73
2018-07-15T16:10:07.998Z,2.98
2018-07-15T16:12:36.445Z,2.70
2018-07-15T16:15:05.161Z,3.10
2018-07-15T16:17:33.643Z,4.07
2018-07-15T16:20:02.167Z,9.00
2018-07-15T16:22:31.000Z,3.90
2018-07-15T16:24:59.633Z,3.77
2018-07-15T16:27:28.155Z,3.50
2018-07-15T16:29:57.604Z,3.67
2018-07-15T16:32:26.225Z,3.40
2018-07-15T16:34:54.632Z,4.20
2018-07-15T16:37:23.096Z,3.10
2018-07-15T16:39:51.509Z,2.90
2018-07-15T16:42:20.362Z,2.60
2018-07-15T16:44:48.884Z,2.95
2018-07-15T16:47:17.418Z,2.57
2018-07-15T16:49:45.897Z,2.90
2018-07-15T16:52:14.343Z,2.80
2018-07-15T16:54:43.034Z,2.53
2018-07-15T16:57:11.715Z,2.30
2018-07-15T16:59:40.306Z,2.50
2018-07-15T17:02:08.738Z,3.20
2018-07-15T17:04:37.129Z,5.13
2018-07-15T17:07:06.112Z,4.00
2018-07-15T17:09:35.053Z,2.73
2018-07-15T17:12:03.794Z,3.20
2018-07-15T17:14:32.256Z,2.80
2018-07-15T17:17:00.748Z,3.63
2018-07-15T17:19:29.575Z,3.37
2018-07-15T17:21:58.027Z,4.30
2018-07-15T17:24:26.581Z,3.43
2018-07-15T17:26:55.046Z,4.15
2018-07-15T17:29:24.068Z,4.13
2018-07-15T17:31:52.982Z,4.40
2018-07-15T17:34:21.482Z,4.47
2018-07-15T17:36:50.589Z,4.30
2018-07-15T17:39:19.208Z,5.40
2018-07-15T17:41:47.706Z,4.97
2018-07-15T17:44:16.835Z,4.95
2018-07-15T17:46:45.399Z,5.70
2018-07-15T17:49:13.921Z,4.20
2018-07-15T17:51:42.700Z,4.53
2018-07-15T17:54:11.380Z,4.60
2018-07-15T17:56:39.904Z,6.43
2018-07-15T17:59:08.554Z,5.63
2018-07-15T18:01:36.981Z,4.40
2018-07-15T18:04:05.434Z,4.57
2018-07-15T18:06:34.027Z,5.37
2018-07-15T18:09:02.670Z,4.40
2018-07-15T18:11:31.211Z,4.72
2018-07-15T18:13:59.629Z,4.70
2018-07-15T18:16:28.208Z,4.30
2018-07-15T18:18:56.680Z,6.20
2018-07-15T18:21:25.511Z,4.80
2018-07-15T18:23:53.969Z,4.80
2018-07-15T18:26:22.375Z,7.33
2018-07-15T18:28:50.761Z,6.60
2018-07-15T18:31:19.248Z,5.93
2018-07-15T18:33:47.680Z,6.70
2018-07-15T18:36:16.469Z,7.37
2018-07-15T18:38:44.899Z,6.90
2018-07-15T18:41:13.580Z,5.90
2018-07-15T18:43:42.336Z,5.63
2018-07-15T18:46:10.940Z,6.40
2018-07-15T18:48:39.493Z,5.53
2018-07-15T18:51:08.036Z,4.53
2018-07-15T18:53:36.546Z,6.90
2018-07-15T18:56:05.164Z,7.83
2018-07-15T18:58:33.654Z,5.07
2018-07-15T19:01:02.351Z,5.13
2018-07-15T19:03:30.784Z,5.80
2018-07-15T19:05:59.207Z,5.80
2018-07-15T19:08:27.752Z,9.10
2018-07-15T19:10:56.512Z,8.63
2018-07-15T19:13:25.011Z,5.37
2018-07-15T19:15:53.434Z,6.10
2018-07-15T19:18:21.868Z,5.00
2018-07-15T19:20:50.316Z,4.83
2018-07-15T19:23:18.731Z,5.53
2018-07-15T19:25:47.195Z,4.83
2018-07-15T19:28:15.861Z,5.60
2018-07-15T19:30:44.321Z,5.73
2018-07-15T19:33:13.127Z,4.63
2018-07-15T19:35:41.566Z,5.08
2018-07-15T19:38:10.235Z,4.67
2018-07-15T19:40:38.687Z,9.13
2018-07-15T19:43:07.136Z,7.47
2018-07-15T19:45:35.784Z,4.80
2018-07-15T19:48:04.282Z,5.30
2018-07-15T19:50:32.810Z,8.37
2018-07-15T19:53:01.269Z,5.27
2018-07-15T19:55:29.737Z,4.53
2018-07-15T19:57:58.180Z,16.17
2018-07-15T20:00:27.179Z,4.87
2018-07-15T20:02:56.446Z,4.60
2018-07-15T20:05:24.888Z,4.90
2018-07-15T20:07:53.386Z,4.50
2018-07-15T20:10:21.887Z,8.50
2018-07-15T20:12:50.343Z,5.03
2018-07-15T20:15:18.830Z,5.37
2018-07-15T20:17:47.292Z,4.50
2018-07-15T20:20:15.785Z,4.03
2018-07-15T20:22:44.264Z,4.93
2018-07-15T20:25:12.963Z,5.37
2018-07-15T20:27:41.461Z,4.50
2018-07-15T20:30:10.047Z,4.17
2018-07-15T20:32:38.474Z,4.75
2018-07-15T20:35:07.122Z,4.60
2018-07-15T20:37:35.632Z,4.85
2018-07-15T20:40:04.136Z,5.43
2018-07-15T20:42:32.876Z,5.33
2018-07-15T20:45:01.272Z,5.47
2018-07-15T20:47:29.953Z,5.40
2018-07-15T20:49:58.644Z,4.90
2018-07-15T20:52:27.108Z,6.27
2018-07-15T20:54:55.655Z,5.20
2018-07-15T20:57:24.414Z,5.97
2018-07-15T20:59:53.026Z,6.23
2018-07-15T21:02:21.681Z,6.47
2018-07-15T21:04:50.132Z,5.90
2018-07-15T21:07:18.845Z,6.80
2018-07-15T21:09:47.258Z,6.28
2018-07-15T21:12:16.499Z,6.70
2018-07-15T21:14:44.947Z,6.47
2018-07-15T21:17:13.411Z,6.60
2018-07-15T21:19:41.843Z,7.83
2018-07-15T21:22:10.313Z,7.70
2018-07-15T21:24:39.059Z,7.30
2018-07-15T21:27:07.483Z,6.70
2018-07-15T21:29:35.940Z,8.23
2018-07-15T21:32:04.508Z,7.20
2018-07-15T21:34:32.925Z,6.33
2018-07-15T21:37:01.391Z,6.60
2018-07-15T21:39:29.801Z,7.00
2018-07-15T21:41:58.255Z,7.08
2018-07-15T21:44:26.659Z,6.35
2018-07-15T21:46:55.348Z,7.30
2018-07-15T21:49:23.830Z,6.10
2018-07-15T21:51:52.273Z,6.60
2018-07-15T21:54:20.744Z,7.00
2018-07-15T21:56:49.188Z,6.12
2018-07-15T21:59:17.598Z,5.37
2018-07-15T22:01:46.106Z,6.28
2018-07-15T22:04:14.522Z,5.93
2018-07-15T22:06:54.166Z,5.80
2018-07-15T22:09:48.183Z,6.10
2018-07-15T22:12:16.635Z,6.03
2018-07-15T22:14:45.053Z,5.60
2018-07-15T22:17:13.496Z,5.50
2018-07-15T22:19:41.983Z,6.63
2018-07-15T22:22:10.412Z,5.40
2018-07-15T22:24:39.187Z,5.80
2018-07-15T22:27:07.670Z,5.57
2018-07-15T22:29:36.130Z,5.80
2018-07-15T22:32:05.200Z,5.40
2018-07-15T22:34:33.714Z,6.60
2018-07-15T22:37:02.185Z,5.87
2018-07-15T22:39:30.627Z,6.80
2018-07-15T22:41:59.350Z,5.83
2018-07-15T22:44:28.024Z,5.47
2018-07-15T22:46:56.434Z,6.35
2018-07-15T22:49:24.854Z,7.30
2018-07-15T22:51:53.361Z,6.75
2018-07-15T22:54:21.792Z,6.65
2018-07-15T22:56:50.243Z,6.73
2018-07-15T22:59:18.700Z,6.60
2018-07-15T23:01:47.171Z,6.43
2018-07-15T23:04:15.640Z,7.78
2018-07-15T23:06:44.114Z,7.10
2018-07-15T23:09:12.592Z,7.40
2018-07-15T23:11:41.042Z,7.30
2018-07-15T23:14:09.665Z,8.30
2018-07-15T23:16:38.071Z,6.70
2018-07-15T23:19:06.496Z,7.33
2018-07-15T23:21:34.952Z,7.47
2018-07-15T23:24:03.371Z,7.23
2018-07-15T23:26:31.881Z,7.80
2018-07-15T23:29:00.312Z,7.97
2018-07-15T23:31:28.739Z,7.75
2018-07-15T23:33:57.176Z,8.25
2018-07-15T23:36:25.592Z,7.50
2018-07-15T23:38:54.091Z,7.83
2018-07-15T23:41:22.529Z,7.77
2018-07-15T23:43:50.994Z,9.00
2018-07-15T23:46:19.491Z,8.90
2018-07-15T23:48:47.896Z,8.60
2018-07-15T23:51:16.487Z,8.70
2018-07-15T23:53:44.931Z,9.20
2018-07-15T23:56:13.393Z,9.30
2018-07-15T23:58:41.802Z,7.90
